Flight Track Log - Related Links

Times and Time Zones

All times are in EST time to prevent confusion due to time zone crossing. See the UAL6118 flight status page for this flight to view local times or setup timezone preferences in your user account.


Time Position Orientation Groundspeed Altitude Reporting Facility
EST Latitude Longitude Course Direction KTS MPH feet Rate Location/Type
Tue 02:56:26 PM 35.2328 -80.9392 354° North 153 176 1,600  Level Atlanta Center
Tue 02:56:44 PM 35.2472 -80.9411 354° North 158 182 2,200 1,823 Climbing Atlanta Center
Tue 02:57:45 PM 35.3006 -80.9061 28° Northeast 248 285 4,000 2,296 Climbing Atlanta Center
Tue 02:58:39 PM 35.3172 -80.8164 77° East 286 329 6,600 2,903 Climbing Atlanta Center
Tue 02:58:47 PM 35.3211 -80.8086 58° Northeast 298 343 7,000 3,200 Climbing Atlanta Center
Tue 02:59:39 PM 35.3356 -80.7214 79° East 286 329 9,800 2,143 Climbing Atlanta Center
Tue 03:00:39 PM 35.3514 -80.6189 79° East 307 353 11,000 1,800 Climbing Atlanta Center
Tue 03:01:39 PM 35.3728 -80.4933 78° East 344 396 13,400 2,300 Climbing Atlanta Center
Tue 03:02:39 PM 35.3942 -80.3700 78° East 362 417 15,600 1,897 Climbing Atlanta Center
Tue 03:04:33 PM 35.4353 -80.1372 78° East 382 440 18,900 1,621 Climbing Washington Center
Tue 03:05:33 PM 35.4722 -79.9889 73° East 394 453 20,300 992 Climbing Washington Center
Tue 03:06:34 PM 35.5089 -79.8406 73° East 427 491 20,900 590 Climbing Washington Center
Tue 03:07:35 PM 35.5500 -79.6819 72° East 457 526 21,500 738 Climbing Washington Center
Tue 03:08:36 PM 35.5903 -79.5331 72° East 489 563 22,400 1,059 Climbing Washington Center
Tue 03:09:34 PM 35.6744 -79.3892 54° Northeast 485 558 23,600 1,119 Climbing Washington Center
Tue 03:10:34 PM 35.7856 -79.2997 33° Northeast 463 533 24,600 1,041 Climbing Washington Center
Tue 03:11:35 PM 35.8969 -79.2075 34° Northeast 463 533 25,700 1,041 Climbing Washington Center
Tue 03:12:35 PM 36.0103 -79.1150 33° Northeast 475 547 26,700 661 Climbing Washington Center
Tue 03:13:33 PM 36.1236 -79.0197 34° Northeast 481 554 27,000 153 Climbing Washington Center
Tue 03:14:33 PM 36.2283 -78.9342 33° Northeast 492 566 27,000  Level Washington Center
Tue 03:15:33 PM 36.3522 -78.8311 34° Northeast 511 588 27,000  Level Washington Center
Tue 03:16:34 PM 36.4717 -78.7303 34° Northeast 523 602 27,000  Level Washington Center
Tue 03:17:33 PM 36.5869 -78.6367 33° Northeast 510 587 27,000  Level Washington Center
Tue 03:18:34 PM 36.7042 -78.5325 35° Northeast 483 556 27,000  Level Washington Center
Tue 03:19:34 PM 36.8106 -78.4456 33° Northeast 470 541 27,000  Level Washington Center
Tue 03:20:35 PM 36.9214 -78.3508 34° Northeast 470 541 27,000 -605 Level Washington Center
Tue 03:21:33 PM 37.0297 -78.2586 34° Northeast 475 547 25,800 -1,563 Descending Washington Center
Tue 03:22:34 PM 37.1214 -78.1783 35° Northeast 462 532 23,900 -1,820 Descending Washington Center
Tue 03:23:35 PM 37.2275 -78.0881 34° Northeast 438 504 22,100 -942 Descending Washington Center
Tue 03:24:35 PM 37.3272 -78.0025 34° Northeast 427 491 22,000 -50 Descending Washington Center
Tue 03:25:34 PM 37.4269 -77.9167 34° Northeast 432 497 22,000  Level Washington Center
Tue 03:26:34 PM 37.5244 -77.8333 34° Northeast 432 497 22,000  Level Washington Center
Tue 03:27:35 PM 37.6281 -77.7683 26° Northeast 426 490 22,000 -655 Level Washington Center
Tue 03:28:33 PM 37.7333 -77.7083 24° Northeast 414 476 20,700 -1,765 Descending Washington Center
Tue 03:29:34 PM 37.8344 -77.6506 24° Northeast 407 468 18,500 -2,361 Descending Washington Center
Tue 03:30:35 PM 37.9250 -77.5950 26° Northeast 383 441 15,900 -2,723 Descending Washington Center
Tue 03:31:33 PM 38.0133 -77.5447 24° Northeast 359 413 13,100 -2,390 Descending Washington Center
Tue 03:32:33 PM 38.0933 -77.5019 23° Northeast 335 386 11,200 -1,587 Descending Washington Center
Tue 03:33:34 PM 38.1733 -77.4539 25° Northeast 321 369 9,900 -885 Descending Washington Center
Tue 03:34:35 PM 38.2447 -77.4292 15° North 289 333 9,400 -605 Descending Washington Center
Tue 03:35:33 PM 38.3092 -77.4439 350° North 251 289 8,700 -655 Descending Washington Center
Tue 03:36:34 PM 38.3758 -77.4508 355° North 246 283 8,100 -639 Descending Washington Center
Tue 03:37:35 PM 38.4467 -77.4500 North 246 283 7,400 -645 Descending Washington Center
Tue 03:38:35 PM 38.5133 -77.4464 North 236 272 6,800 -610 Descending Washington Center
Tue 03:39:33 PM 38.5803 -77.4453 North 236 272 6,200 -610 Descending Washington Center
Tue 03:40:33 PM 38.6428 -77.4417 North 229 264 5,600 -993 Descending Washington Center
Tue 03:41:58 PM 38.7333 -77.4333 North 206 237 3,800 -1,034 Descending Potomac TRACON
Tue 03:42:58 PM 38.7833 -77.4333 360° North 171 197 3,100 -750 Descending Potomac TRACON
Tue 03:43:58 PM 38.8333 -77.4333 360° North 183 211 2,300 -850 Descending Potomac TRACON
Tue 03:44:58 PM 38.8667 -77.4333 360° North 142 163 1,400 -850 Descending Potomac TRACON
Tue 03:45:58 PM 38.9167 -77.4333 360° North 135 155 600 -800 Descending Potomac TRACON
Tue 03:47:00 PM 38.9474 -77.4599 North  Level Estimated
Tue 03:54:00 PM 38.9474 -77.4599 195° South  Level Estimated
Tue 03:55:00 PM 38.9474 -77.4599 195° South  Level Estimated

Login

Don't have an account? Register now (free) for customized features, flight alerts, and more!